sensor_id;sensor_type;location;lat;lon;timestamp;P1;durP1;ratioP1;P2;durP2;ratioP2
18340;SDS011;9296;48.084;16.352;2023-11-21T09:19:54;6.40;;;2.60;;
18340;SDS011;9296;48.084;16.352;2023-11-21T09:22:45;4.57;;;1.77;;
18340;SDS011;9296;48.084;16.352;2023-11-21T11:35:59;3.25;;;0.80;;
18340;SDS011;9296;48.084;16.352;2023-11-21T11:38:38;4.25;;;1.08;;
18340;SDS011;9296;48.084;16.352;2023-11-21T11:41:40;2.05;;;0.82;;
18340;SDS011;9296;48.084;16.352;2023-11-21T11:47:05;3.05;;;1.08;;
18340;SDS011;9296;48.084;16.352;2023-11-21T14:55:44;5.00;;;1.60;;
18340;SDS011;9296;48.084;16.352;2023-11-21T15:01:06;3.97;;;1.88;;
18340;SDS011;9296;48.084;16.352;2023-11-21T15:06:42;2.95;;;1.70;;
18340;SDS011;9296;48.084;16.352;2023-11-21T15:09:13;4.93;;;1.83;;
18340;SDS011;9296;48.084;16.352;2023-11-21T15:12:01;3.97;;;1.60;;
18340;SDS011;9296;48.084;16.352;2023-11-21T15:14:39;3.03;;;1.60;;
18340;SDS011;9296;48.084;16.352;2023-11-21T15:17:08;4.75;;;1.60;;
18340;SDS011;9296;48.084;16.352;2023-11-21T15:23:02;3.38;;;2.00;;
18340;SDS011;9296;48.084;16.352;2023-11-21T15:25:43;4.63;;;2.13;;
18340;SDS011;9296;48.084;16.352;2023-11-21T15:31:47;5.50;;;2.33;;
18340;SDS011;9296;48.084;16.352;2023-11-21T15:34:52;5.10;;;2.13;;
18340;SDS011;9296;48.084;16.352;2023-11-21T15:37:20;5.13;;;2.25;;
18340;SDS011;9296;48.084;16.352;2023-11-21T15:40:02;3.65;;;2.40;;
18340;SDS011;9296;48.084;16.352;2023-11-21T15:42:32;4.53;;;2.67;;
18340;SDS011;9296;48.084;16.352;2023-11-21T15:45:43;6.88;;;3.13;;
18340;SDS011;9296;48.084;16.352;2023-11-21T16:08:08;4.65;;;2.47;;
18340;SDS011;9296;48.084;16.352;2023-11-21T16:10:50;5.15;;;2.95;;
18340;SDS011;9296;48.084;16.352;2023-11-21T16:13:22;5.78;;;3.03;;
18340;SDS011;9296;48.084;16.352;2023-11-21T16:16:00;5.15;;;3.03;;
18340;SDS011;9296;48.084;16.352;2023-11-21T16:21:07;6.43;;;3.22;;
18340;SDS011;9296;48.084;16.352;2023-11-21T16:33:13;7.95;;;3.33;;
18340;SDS011;9296;48.084;16.352;2023-11-21T16:36:06;6.05;;;3.40;;
18340;SDS011;9296;48.084;16.352;2023-11-21T16:38:51;8.80;;;4.07;;
18340;SDS011;9296;48.084;16.352;2023-11-21T16:41:28;4.95;;;3.20;;
18340;SDS011;9296;48.084;16.352;2023-11-21T16:44:02;5.70;;;3.42;;
18340;SDS011;9296;48.084;16.352;2023-11-21T16:46:44;6.82;;;3.92;;
18340;SDS011;9296;48.084;16.352;2023-11-21T16:52:04;6.78;;;3.95;;
18340;SDS011;9296;48.084;16.352;2023-11-21T16:54:33;5.90;;;3.75;;
18340;SDS011;9296;48.084;16.352;2023-11-21T16:57:09;6.10;;;3.85;;
18340;SDS011;9296;48.084;16.352;2023-11-21T16:59:40;6.88;;;4.20;;
18340;SDS011;9296;48.084;16.352;2023-11-21T17:02:17;5.88;;;3.78;;
18340;SDS011;9296;48.084;16.352;2023-11-21T17:04:56;9.00;;;4.43;;
18340;SDS011;9296;48.084;16.352;2023-11-21T17:10:36;6.88;;;4.00;;
18340;SDS011;9296;48.084;16.352;2023-11-21T17:13:07;6.88;;;4.05;;
18340;SDS011;9296;48.084;16.352;2023-11-21T17:15:37;6.10;;;4.10;;
18340;SDS011;9296;48.084;16.352;2023-11-21T17:21:38;6.22;;;4.22;;
18340;SDS011;9296;48.084;16.352;2023-11-21T17:24:24;6.18;;;4.68;;
18340;SDS011;9296;48.084;16.352;2023-11-21T17:27:15;9.60;;;4.75;;
18340;SDS011;9296;48.084;16.352;2023-11-21T17:29:44;6.00;;;4.70;;
18340;SDS011;9296;48.084;16.352;2023-11-21T17:32:13;10.30;;;5.20;;
18340;SDS011;9296;48.084;16.352;2023-11-21T17:37:45;9.95;;;5.32;;
18340;SDS011;9296;48.084;16.352;2023-11-21T17:40:12;10.75;;;5.50;;
18340;SDS011;9296;48.084;16.352;2023-11-21T17:42:41;8.68;;;5.30;;
18340;SDS011;9296;48.084;16.352;2023-11-21T17:45:09;11.35;;;5.10;;
18340;SDS011;9296;48.084;16.352;2023-11-21T17:47:37;8.07;;;5.18;;
18340;SDS011;9296;48.084;16.352;2023-11-21T17:53:07;10.30;;;5.57;;
18340;SDS011;9296;48.084;16.352;2023-11-21T17:55:35;10.10;;;5.30;;
18340;SDS011;9296;48.084;16.352;2023-11-21T17:58:03;8.27;;;5.18;;
18340;SDS011;9296;48.084;16.352;2023-11-21T18:00:31;7.97;;;5.72;;
18340;SDS011;9296;48.084;16.352;2023-11-21T18:09:05;10.48;;;6.18;;
18340;SDS011;9296;48.084;16.352;2023-11-21T18:11:34;9.57;;;5.93;;
18340;SDS011;9296;48.084;16.352;2023-11-21T18:14:02;9.80;;;5.60;;
18340;SDS011;9296;48.084;16.352;2023-11-21T18:16:34;8.38;;;5.45;;
18340;SDS011;9296;48.084;16.352;2023-11-21T18:22:31;7.47;;;5.15;;
18340;SDS011;9296;48.084;16.352;2023-11-21T18:25:12;7.97;;;5.40;;
18340;SDS011;9296;48.084;16.352;2023-11-21T18:27:42;7.53;;;4.97;;
18340;SDS011;9296;48.084;16.352;2023-11-21T18:30:12;8.63;;;5.10;;
18340;SDS011;9296;48.084;16.352;2023-11-21T18:32:39;7.43;;;4.78;;
18340;SDS011;9296;48.084;16.352;2023-11-21T18:35:07;10.35;;;4.55;;
18340;SDS011;9296;48.084;16.352;2023-11-21T18:37:35;7.15;;;4.22;;
18340;SDS011;9296;48.084;16.352;2023-11-21T18:40:03;5.30;;;4.15;;
18340;SDS011;9296;48.084;16.352;2023-11-21T18:42:30;6.15;;;4.18;;
18340;SDS011;9296;48.084;16.352;2023-11-21T18:44:58;7.38;;;4.72;;
18340;SDS011;9296;48.084;16.352;2023-11-21T18:47:27;9.95;;;4.40;;
18340;SDS011;9296;48.084;16.352;2023-11-21T18:52:58;8.35;;;5.80;;
18340;SDS011;9296;48.084;16.352;2023-11-21T18:55:27;8.40;;;5.45;;
18340;SDS011;9296;48.084;16.352;2023-11-21T18:57:55;11.38;;;5.80;;
18340;SDS011;9296;48.084;16.352;2023-11-21T19:00:37;10.65;;;6.15;;
18340;SDS011;9296;48.084;16.352;2023-11-21T19:03:09;7.82;;;5.90;;
18340;SDS011;9296;48.084;16.352;2023-11-21T19:05:40;7.95;;;5.85;;
18340;SDS011;9296;48.084;16.352;2023-11-21T19:08:08;8.63;;;5.93;;
18340;SDS011;9296;48.084;16.352;2023-11-21T19:10:38;9.80;;;5.93;;
18340;SDS011;9296;48.084;16.352;2023-11-21T19:13:09;7.80;;;5.60;;
18340;SDS011;9296;48.084;16.352;2023-11-21T19:15:37;7.45;;;5.13;;
18340;SDS011;9296;48.084;16.352;2023-11-21T19:18:06;8.13;;;5.10;;
18340;SDS011;9296;48.084;16.352;2023-11-21T19:23:37;8.23;;;5.80;;
18340;SDS011;9296;48.084;16.352;2023-11-21T19:26:05;9.23;;;5.35;;
18340;SDS011;9296;48.084;16.352;2023-11-21T19:28:32;6.75;;;5.40;;
18340;SDS011;9296;48.084;16.352;2023-11-21T19:31:00;9.98;;;6.00;;
18340;SDS011;9296;48.084;16.352;2023-11-21T19:33:30;8.52;;;5.80;;
18340;SDS011;9296;48.084;16.352;2023-11-21T19:35:57;9.88;;;5.93;;
18340;SDS011;9296;48.084;16.352;2023-11-21T19:38:25;8.85;;;5.50;;
18340;SDS011;9296;48.084;16.352;2023-11-21T19:40:52;9.15;;;6.75;;
18340;SDS011;9296;48.084;16.352;2023-11-21T19:43:19;8.00;;;5.72;;
18340;SDS011;9296;48.084;16.352;2023-11-21T19:45:47;8.55;;;6.50;;
18340;SDS011;9296;48.084;16.352;2023-11-21T19:48:15;10.00;;;6.35;;
18340;SDS011;9296;48.084;16.352;2023-11-21T19:50:47;10.15;;;6.47;;
18340;SDS011;9296;48.084;16.352;2023-11-21T19:53:15;8.07;;;5.80;;
18340;SDS011;9296;48.084;16.352;2023-11-21T19:55:42;9.77;;;6.07;;
18340;SDS011;9296;48.084;16.352;2023-11-21T19:58:11;15.50;;;8.02;;
18340;SDS011;9296;48.084;16.352;2023-11-21T20:00:43;12.75;;;7.75;;
18340;SDS011;9296;48.084;16.352;2023-11-21T20:03:11;11.00;;;7.53;;
18340;SDS011;9296;48.084;16.352;2023-11-21T20:08:28;11.60;;;7.60;;
18340;SDS011;9296;48.084;16.352;2023-11-21T20:10:58;11.40;;;7.93;;
18340;SDS011;9296;48.084;16.352;2023-11-21T20:13:25;10.52;;;7.70;;
18340;SDS011;9296;48.084;16.352;2023-11-21T20:15:53;14.13;;;9.00;;
18340;SDS011;9296;48.084;16.352;2023-11-21T20:18:20;11.95;;;7.97;;
18340;SDS011;9296;48.084;16.352;2023-11-21T20:24:10;12.13;;;8.23;;
18340;SDS011;9296;48.084;16.352;2023-11-21T20:26:38;13.05;;;8.30;;
18340;SDS011;9296;48.084;16.352;2023-11-21T20:29:07;10.55;;;7.45;;
18340;SDS011;9296;48.084;16.352;2023-11-21T20:31:34;12.48;;;7.22;;
18340;SDS011;9296;48.084;16.352;2023-11-21T20:34:02;9.15;;;7.20;;
18340;SDS011;9296;48.084;16.352;2023-11-21T20:36:31;13.13;;;7.45;;
18340;SDS011;9296;48.084;16.352;2023-11-21T20:38:58;9.40;;;6.50;;
18340;SDS011;9296;48.084;16.352;2023-11-21T20:41:27;10.52;;;6.60;;
18340;SDS011;9296;48.084;16.352;2023-11-21T20:43:54;9.00;;;6.47;;
18340;SDS011;9296;48.084;16.352;2023-11-21T20:46:22;8.85;;;6.13;;
18340;SDS011;9296;48.084;16.352;2023-11-21T20:48:49;9.88;;;6.13;;
18340;SDS011;9296;48.084;16.352;2023-11-21T20:51:17;8.20;;;5.85;;
18340;SDS011;9296;48.084;16.352;2023-11-21T20:53:44;8.18;;;6.45;;
18340;SDS011;9296;48.084;16.352;2023-11-21T20:56:12;9.20;;;6.53;;
18340;SDS011;9296;48.084;16.352;2023-11-21T20:58:41;10.75;;;6.85;;
18340;SDS011;9296;48.084;16.352;2023-11-21T21:01:09;8.70;;;6.90;;
18340;SDS011;9296;48.084;16.352;2023-11-21T21:03:36;10.13;;;6.47;;
18340;SDS011;9296;48.084;16.352;2023-11-21T21:06:04;7.70;;;6.13;;
18340;SDS011;9296;48.084;16.352;2023-11-21T21:08:32;10.05;;;7.00;;
18340;SDS011;9296;48.084;16.352;2023-11-21T21:11:02;9.25;;;6.82;;
18340;SDS011;9296;48.084;16.352;2023-11-21T21:13:32;10.15;;;7.18;;
18340;SDS011;9296;48.084;16.352;2023-11-21T21:16:07;11.90;;;7.45;;
18340;SDS011;9296;48.084;16.352;2023-11-21T21:18:35;11.20;;;6.75;;
18340;SDS011;9296;48.084;16.352;2023-11-21T21:21:02;9.63;;;7.10;;
18340;SDS011;9296;48.084;16.352;2023-11-21T21:23:30;8.02;;;6.28;;
18340;SDS011;9296;48.084;16.352;2023-11-21T21:25:57;10.43;;;7.07;;
18340;SDS011;9296;48.084;16.352;2023-11-21T21:28:26;11.45;;;7.00;;
18340;SDS011;9296;48.084;16.352;2023-11-21T21:30:56;8.00;;;6.07;;
18340;SDS011;9296;48.084;16.352;2023-11-21T21:33:25;8.50;;;6.88;;
18340;SDS011;9296;48.084;16.352;2023-11-21T21:38:55;9.70;;;6.60;;
18340;SDS011;9296;48.084;16.352;2023-11-21T21:41:23;9.48;;;6.95;;
18340;SDS011;9296;48.084;16.352;2023-11-21T21:43:51;9.93;;;6.75;;
18340;SDS011;9296;48.084;16.352;2023-11-21T21:46:18;10.20;;;6.97;;
18340;SDS011;9296;48.084;16.352;2023-11-21T21:48:47;10.15;;;7.20;;
18340;SDS011;9296;48.084;16.352;2023-11-21T21:51:15;8.63;;;6.45;;
18340;SDS011;9296;48.084;16.352;2023-11-21T21:53:42;11.38;;;7.28;;
18340;SDS011;9296;48.084;16.352;2023-11-21T21:56:10;8.63;;;6.50;;
18340;SDS011;9296;48.084;16.352;2023-11-21T21:58:38;9.38;;;6.20;;
18340;SDS011;9296;48.084;16.352;2023-11-21T22:01:06;11.20;;;6.47;;
18340;SDS011;9296;48.084;16.352;2023-11-21T22:03:34;10.98;;;6.57;;
18340;SDS011;9296;48.084;16.352;2023-11-21T22:12:16;10.00;;;6.30;;
18340;SDS011;9296;48.084;16.352;2023-11-21T22:14:44;9.00;;;6.55;;
18340;SDS011;9296;48.084;16.352;2023-11-21T22:17:11;9.50;;;6.15;;
18340;SDS011;9296;48.084;16.352;2023-11-21T22:19:40;8.93;;;6.47;;
18340;SDS011;9296;48.084;16.352;2023-11-21T22:22:07;9.85;;;6.40;;
18340;SDS011;9296;48.084;16.352;2023-11-21T22:24:36;8.57;;;6.18;;
18340;SDS011;9296;48.084;16.352;2023-11-21T22:27:04;8.52;;;5.95;;
18340;SDS011;9296;48.084;16.352;2023-11-21T22:29:33;9.98;;;6.95;;
18340;SDS011;9296;48.084;16.352;2023-11-21T22:32:00;9.43;;;6.93;;
18340;SDS011;9296;48.084;16.352;2023-11-21T22:34:30;13.55;;;7.15;;
18340;SDS011;9296;48.084;16.352;2023-11-21T22:36:57;9.90;;;7.00;;
18340;SDS011;9296;48.084;16.352;2023-11-21T22:39:24;10.07;;;7.22;;
18340;SDS011;9296;48.084;16.352;2023-11-21T22:42:15;9.38;;;7.38;;
18340;SDS011;9296;48.084;16.352;2023-11-21T22:44:47;10.40;;;7.40;;
18340;SDS011;9296;48.084;16.352;2023-11-21T22:47:17;9.02;;;7.28;;
18340;SDS011;9296;48.084;16.352;2023-11-21T22:50:06;9.80;;;7.13;;
18340;SDS011;9296;48.084;16.352;2023-11-21T22:52:34;12.15;;;7.00;;
18340;SDS011;9296;48.084;16.352;2023-11-21T22:55:18;8.82;;;6.43;;
18340;SDS011;9296;48.084;16.352;2023-11-21T22:57:46;11.80;;;6.50;;
18340;SDS011;9296;48.084;16.352;2023-11-21T23:00:18;9.50;;;6.25;;
18340;SDS011;9296;48.084;16.352;2023-11-21T23:02:46;10.07;;;6.90;;
18340;SDS011;9296;48.084;16.352;2023-11-21T23:05:14;10.98;;;6.80;;
18340;SDS011;9296;48.084;16.352;2023-11-21T23:07:46;9.43;;;6.65;;
18340;SDS011;9296;48.084;16.352;2023-11-21T23:10:14;10.10;;;6.90;;
18340;SDS011;9296;48.084;16.352;2023-11-21T23:12:43;8.93;;;6.85;;
18340;SDS011;9296;48.084;16.352;2023-11-21T23:15:10;10.35;;;7.35;;
18340;SDS011;9296;48.084;16.352;2023-11-21T23:17:39;9.50;;;6.65;;
18340;SDS011;9296;48.084;16.352;2023-11-21T23:26:07;9.27;;;7.32;;
18340;SDS011;9296;48.084;16.352;2023-11-21T23:28:36;9.52;;;6.55;;
18340;SDS011;9296;48.084;16.352;2023-11-21T23:31:17;10.00;;;7.07;;
